Time;durP1;ratioP1;P1;durP2;ratioP2;P2;SDS_P1;SDS_P2;PMS_P1;PMS_P2;Temp;Humidity;BMP_temperature;BMP_pressure;BME280_temperature;BME280_humidity;BME280_pressure;Samples;Min_cycle;Max_cycle;Signal;HPM_P1;HPM_P2
2021/12/04 00:01:11;;;;;;;6.30;5.63;;;;;;;;;;5074477;28;20488;-60
2021/12/04 00:03:37;;;;;;;5.47;4.83;;;;;;;;;;5074629;28;20955;-59
2021/12/04 00:06:09;;;;;;;6.60;5.90;;;;;;;;;;5074505;28;21053;-58
2021/12/04 00:08:36;;;;;;;6.13;5.50;;;;;;;;;;5074679;28;20429;-59
2021/12/04 00:11:02;;;;;;;5.93;5.40;;;;;;;;;;5073392;28;20476;-59
2021/12/04 00:13:28;;;;;;;6.37;5.77;;;;;;;;;;5074476;28;20436;-58
2021/12/04 00:15:54;;;;;;;7.07;6.10;;;;;;;;;;5074393;28;20541;-60
2021/12/04 00:18:21;;;;;;;7.07;6.00;;;;;;;;;;5074539;28;20525;-59
2021/12/04 00:20:47;;;;;;;6.67;6.00;;;;;;;;;;5074327;28;20624;-58
2021/12/04 00:23:13;;;;;;;6.80;6.10;;;;;;;;;;5074904;28;20449;-58
2021/12/04 00:25:39;;;;;;;6.43;5.80;;;;;;;;;;5074328;28;20245;-58
2021/12/04 00:28:05;;;;;;;7.93;6.10;;;;;;;;;;5074263;28;20843;-59
2021/12/04 00:30:31;;;;;;;7.53;6.83;;;;;;;;;;5074233;28;20437;-58
2021/12/04 00:33:19;;;;;;;7.30;5.97;;;;;;;;;;5073959;28;20468;-59
2021/12/04 00:35:49;;;;;;;7.40;6.53;;;;;;;;;;5074251;28;20429;-58
2021/12/04 00:49:17;;;;;;;6.80;6.10;;;;;;;;;;5073936;28;20417;-60
2021/12/04 00:51:46;;;;;;;6.80;6.20;;;;;;;;;;5073920;28;20418;-57
2021/12/04 00:54:14;;;;;;;7.57;6.80;;;;;;;;;;5072912;28;20798;-59
2021/12/04 00:56:41;;;;;;;7.40;6.30;;;;;;;;;;5072974;28;20446;-60
2021/12/04 00:59:07;;;;;;;6.87;6.07;;;;;;;;;;5073861;28;20438;-59
2021/12/04 01:01:33;;;;;;;6.90;6.20;;;;;;;;;;5073196;28;20489;-58
2021/12/04 01:04:00;;;;;;;6.83;6.23;;;;;;;;;;5073792;28;20471;-57
2021/12/04 01:06:26;;;;;;;7.03;6.33;;;;;;;;;;5073871;28;20461;-59
2021/12/04 01:08:53;;;;;;;6.43;5.70;;;;;;;;;;5073685;28;20434;-58
2021/12/04 01:11:19;;;;;;;6.30;5.80;;;;;;;;;;5073691;28;20254;-58
2021/12/04 01:13:45;;;;;;;6.23;5.63;;;;;;;;;;5071531;28;20437;-59
2021/12/04 01:16:11;;;;;;;8.37;6.10;;;;;;;;;;5073377;28;20653;-59
2021/12/04 01:18:37;;;;;;;7.80;5.77;;;;;;;;;;5073276;28;20195;-60
2021/12/04 01:21:03;;;;;;;5.97;5.30;;;;;;;;;;5073386;28;20475;-59
2021/12/04 01:23:29;;;;;;;6.57;5.97;;;;;;;;;;5073502;28;20433;-60
2021/12/04 01:25:57;;;;;;;6.23;5.73;;;;;;;;;;5073239;28;20203;-60
2021/12/04 01:28:23;;;;;;;5.63;5.10;;;;;;;;;;5073176;28;20434;-60
2021/12/04 01:30:49;;;;;;;6.70;5.97;;;;;;;;;;5073153;28;20510;-60
2021/12/04 01:33:15;;;;;;;5.47;4.97;;;;;;;;;;5073234;28;20196;-60
2021/12/04 01:35:41;;;;;;;5.67;5.17;;;;;;;;;;5072959;28;20464;-60
2021/12/04 01:38:07;;;;;;;5.90;5.40;;;;;;;;;;5073043;28;20234;-60
2021/12/04 01:40:33;;;;;;;6.07;5.20;;;;;;;;;;5072904;28;20568;-58
2021/12/04 01:43:00;;;;;;;5.60;5.10;;;;;;;;;;5072938;28;20433;-62
2021/12/04 01:45:27;;;;;;;6.00;5.40;;;;;;;;;;5072038;28;20445;-58
2021/12/04 01:47:57;;;;;;;5.97;5.40;;;;;;;;;;5072766;28;20442;-59
2021/12/04 01:50:23;;;;;;;5.73;5.23;;;;;;;;;;5072789;28;20437;-59
2021/12/04 01:52:49;;;;;;;6.20;5.60;;;;;;;;;;5072731;28;20452;-59
2021/12/04 01:55:15;;;;;;;5.87;5.37;;;;;;;;;;5072826;28;20480;-59
2021/12/04 01:57:41;;;;;;;6.10;5.60;;;;;;;;;;5072477;28;20430;-58
2021/12/04 02:00:10;;;;;;;6.50;5.93;;;;;;;;;;5072460;28;20270;-58
2021/12/04 02:02:36;;;;;;;7.00;6.30;;;;;;;;;;5072362;28;20492;-59
2021/12/04 02:05:02;;;;;;;6.77;6.17;;;;;;;;;;5072800;28;20458;-58
2021/12/04 02:07:30;;;;;;;6.80;6.20;;;;;;;;;;5072421;28;20199;-58
2021/12/04 02:09:56;;;;;;;7.00;6.37;;;;;;;;;;5072212;28;20843;-57
2021/12/04 02:12:22;;;;;;;7.90;6.40;;;;;;;;;;5072310;28;20924;-59
2021/12/04 02:14:48;;;;;;;6.73;6.13;;;;;;;;;;5054325;28;20433;-59
2021/12/04 02:17:15;;;;;;;6.77;5.87;;;;;;;;;;5072397;28;20908;-59
2021/12/04 02:19:45;;;;;;;6.27;5.67;;;;;;;;;;5072292;28;20294;-57
2021/12/04 02:22:13;;;;;;;6.27;5.67;;;;;;;;;;5072016;28;20508;-59
2021/12/04 02:24:39;;;;;;;6.40;5.90;;;;;;;;;;5072201;28;20430;-59
2021/12/04 02:27:05;;;;;;;7.77;5.90;;;;;;;;;;5072180;28;20445;-58
2021/12/04 02:29:31;;;;;;;6.30;5.73;;;;;;;;;;5072231;28;20451;-59
2021/12/04 02:31:59;;;;;;;5.63;5.13;;;;;;;;;;5072031;28;20442;-58
2021/12/04 02:34:27;;;;;;;6.43;5.60;;;;;;;;;;5072068;28;20760;-58
2021/12/04 02:36:53;;;;;;;6.33;5.73;;;;;;;;;;5072011;28;20449;-58
2021/12/04 02:39:23;;;;;;;5.80;5.30;;;;;;;;;;5072057;28;20494;-59
2021/12/04 02:41:49;;;;;;;6.07;5.47;;;;;;;;;;5071859;28;20990;-59
2021/12/04 02:44:15;;;;;;;7.33;5.80;;;;;;;;;;5071839;28;20464;-59
2021/12/04 02:46:41;;;;;;;6.37;5.77;;;;;;;;;;5071863;28;20461;-58
2021/12/04 02:49:09;;;;;;;5.87;5.37;;;;;;;;;;5071931;28;20465;-59
2021/12/04 02:51:35;;;;;;;6.80;6.20;;;;;;;;;;5071819;28;20791;-58
2021/12/04 02:54:01;;;;;;;8.53;5.90;;;;;;;;;;5071951;28;20440;-59
2021/12/04 02:56:29;;;;;;;6.03;5.53;;;;;;;;;;5071667;28;20245;-58
2021/12/04 02:59:01;;;;;;;5.93;5.43;;;;;;;;;;5071682;28;20216;-58
2021/12/04 03:01:27;;;;;;;6.37;5.77;;;;;;;;;;5071642;28;20485;-59
2021/12/04 03:03:53;;;;;;;6.10;5.60;;;;;;;;;;5071607;28;21014;-60
2021/12/04 03:06:19;;;;;;;6.60;6.10;;;;;;;;;;5071559;28;20458;-58
2021/12/04 03:08:46;;;;;;;6.33;5.77;;;;;;;;;;5071679;28;20456;-59
2021/12/04 03:11:12;;;;;;;7.63;6.07;;;;;;;;;;5071861;28;20431;-59
2021/12/04 03:13:40;;;;;;;6.33;5.83;;;;;;;;;;5071379;28;20460;-58
2021/12/04 03:16:06;;;;;;;6.93;6.10;;;;;;;;;;5071686;28;20208;-59
2021/12/04 03:18:32;;;;;;;6.87;6.17;;;;;;;;;;5071686;28;20532;-58
2021/12/04 03:21:02;;;;;;;6.77;6.17;;;;;;;;;;5071426;28;20502;-58
2021/12/04 03:23:30;;;;;;;6.70;6.00;;;;;;;;;;5071681;28;20279;-59
2021/12/04 03:25:59;;;;;;;6.97;6.37;;;;;;;;;;5071615;28;20460;-59
2021/12/04 03:28:26;;;;;;;6.20;5.60;;;;;;;;;;5071504;28;20492;-59
2021/12/04 03:41:55;;;;;;;5.93;5.43;;;;;;;;;;5071302;28;20485;-59
2021/12/04 03:44:21;;;;;;;6.70;6.10;;;;;;;;;;5071066;28;20437;-58
2021/12/04 03:46:50;;;;;;;7.13;6.43;;;;;;;;;;5071367;28;20192;-58
2021/12/04 03:49:16;;;;;;;6.43;5.83;;;;;;;;;;5071487;28;20434;-59
2021/12/04 03:51:42;;;;;;;6.80;6.20;;;;;;;;;;5071279;28;20422;-59
2021/12/04 03:54:08;;;;;;;6.17;5.67;;;;;;;;;;5071289;28;20426;-60
2021/12/04 03:56:36;;;;;;;7.10;6.50;;;;;;;;;;5070988;28;20438;-58
2021/12/04 03:59:02;;;;;;;6.00;5.50;;;;;;;;;;5071280;28;20442;-59
2021/12/04 04:01:29;;;;;;;6.63;5.80;;;;;;;;;;5071078;28;20485;-59
2021/12/04 04:03:56;;;;;;;7.20;5.63;;;;;;;;;;5071049;28;20434;-59
2021/12/04 04:06:22;;;;;;;5.73;5.23;;;;;;;;;;5071055;28;20481;-59
2021/12/04 04:08:48;;;;;;;7.10;6.50;;;;;;;;;;5073475;28;20436;-58
2021/12/04 04:11:14;;;;;;;6.27;5.70;;;;;;;;;;5074835;28;20426;-59
2021/12/04 04:13:43;;;;;;;5.80;5.30;;;;;;;;;;5074538;28;20200;-59
2021/12/04 04:16:10;;;;;;;6.80;6.10;;;;;;;;;;5074720;28;20520;-59
2021/12/04 04:18:36;;;;;;;6.57;5.97;;;;;;;;;;5074601;28;20434;-58
2021/12/04 04:21:03;;;;;;;7.80;7.10;;;;;;;;;;5074594;28;20493;-57
2021/12/04 04:23:29;;;;;;;6.90;6.17;;;;;;;;;;5074591;28;20513;-58
2021/12/04 04:25:55;;;;;;;6.50;5.90;;;;;;;;;;5074652;28;20457;-58
2021/12/04 04:28:21;;;;;;;7.07;6.37;;;;;;;;;;5074259;28;20840;-58
2021/12/04 04:30:48;;;;;;;7.60;5.67;;;;;;;;;;5074382;28;20908;-59
2021/12/04 04:33:14;;;;;;;7.47;6.87;;;;;;;;;;5074557;28;20426;-58
2021/12/04 04:35:41;;;;;;;6.93;6.33;;;;;;;;;;5074274;28;20512;-58
2021/12/04 04:38:31;;;;;;;7.53;6.80;;;;;;;;;;5074234;28;20769;-58
2021/12/04 05:11:07;;;;;;;8.63;7.73;;;;;;;;;;5073633;28;21026;-60
2021/12/04 05:13:33;;;;;;;8.53;7.73;;;;;;;;;;5073547;28;20437;-58
2021/12/04 05:16:10;;;;;;;8.73;7.90;;;;;;;;;;5073474;28;20495;-59
2021/12/04 05:18:38;;;;;;;8.20;7.30;;;;;;;;;;5073358;28;20440;-58
2021/12/04 05:21:06;;;;;;;9.10;8.07;;;;;;;;;;5073457;28;20478;-59
2021/12/04 05:23:32;;;;;;;9.93;8.00;;;;;;;;;;5073532;28;20832;-59
2021/12/04 05:26:00;;;;;;;7.97;7.27;;;;;;;;;;5073367;28;20465;-59
2021/12/04 05:28:26;;;;;;;8.37;7.57;;;;;;;;;;5073255;28;20449;-58
2021/12/04 05:30:52;;;;;;;8.27;7.37;;;;;;;;;;5072785;28;20434;-58
2021/12/04 05:33:18;;;;;;;8.03;7.00;;;;;;;;;;5073195;28;20441;-58
2021/12/04 05:35:48;;;;;;;8.70;7.80;;;;;;;;;;5072983;28;20442;-58
2021/12/04 05:38:14;;;;;;;8.40;7.57;;;;;;;;;;5073370;28;20426;-58
2021/12/04 05:40:40;;;;;;;7.47;6.83;;;;;;;;;;5072967;28;20438;-59
2021/12/04 05:43:08;;;;;;;9.33;7.50;;;;;;;;;;5072865;28;20792;-59
2021/12/04 05:45:39;;;;;;;9.57;7.90;;;;;;;;;;5072974;28;20452;-57
2021/12/04 05:50:55;;;;;;;7.53;6.83;;;;;;;;;;5072868;28;20923;-59
2021/12/04 05:53:27;;;;;;;8.47;7.67;;;;;;;;;;5072873;28;20474;-58
2021/12/04 05:55:54;;;;;;;8.27;7.47;;;;;;;;;;5072665;28;20426;-60
2021/12/04 05:58:23;;;;;;;7.87;7.17;;;;;;;;;;5072733;28;20426;-57
2021/12/04 06:00:49;;;;;;;7.47;6.77;;;;;;;;;;5072091;28;21002;-57
2021/12/04 06:03:15;;;;;;;8.03;7.33;;;;;;;;;;5072617;28;20525;-58
2021/12/04 06:05:41;;;;;;;8.17;7.37;;;;;;;;;;5072334;28;20454;-58
2021/12/04 06:08:07;;;;;;;7.97;7.27;;;;;;;;;;5072630;28;20433;-57
2021/12/04 06:10:33;;;;;;;8.43;7.70;;;;;;;;;;5072468;28;20440;-57
2021/12/04 06:12:59;;;;;;;9.80;7.83;;;;;;;;;;5072310;28;20270;-57
2021/12/04 06:15:26;;;;;;;8.30;7.07;;;;;;;;;;5072370;28;20538;-57
2021/12/04 06:17:54;;;;;;;8.90;7.43;;;;;;;;;;5072302;28;20230;-57
2021/12/04 06:23:05;;;;;;;8.30;7.50;;;;;;;;;;5072322;28;20436;-58
2021/12/04 06:25:31;;;;;;;8.57;7.33;;;;;;;;;;5072296;28;20944;-58
2021/12/04 06:27:57;;;;;;;8.47;7.67;;;;;;;;;;5072059;28;20536;-58
2021/12/04 06:30:24;;;;;;;9.30;8.30;;;;;;;;;;5071777;28;20530;-58
2021/12/04 06:32:53;;;;;;;8.57;7.70;;;;;;;;;;5072041;28;20429;-58
2021/12/04 06:35:20;;;;;;;7.67;6.97;;;;;;;;;;5072157;28;20492;-58
2021/12/04 06:37:48;;;;;;;8.37;7.57;;;;;;;;;;5072049;28;20438;-58
2021/12/04 06:40:15;;;;;;;8.57;7.50;;;;;;;;;;5072165;28;20435;-58
2021/12/04 06:42:41;;;;;;;9.77;8.77;;;;;;;;;;5071830;28;20556;-58
2021/12/04 06:45:07;;;;;;;8.50;7.70;;;;;;;;;;5071891;28;20418;-58
2021/12/04 06:47:35;;;;;;;9.13;7.83;;;;;;;;;;5072013;28;20963;-58
2021/12/04 06:50:07;;;;;;;8.90;8.00;;;;;;;;;;5072022;28;21048;-58
2021/12/04 06:52:33;;;;;;;8.43;7.63;;;;;;;;;;5072022;28;20799;-58
2021/12/04 06:55:01;;;;;;;9.27;8.27;;;;;;;;;;5071919;28;20438;-58
2021/12/04 06:57:29;;;;;;;8.67;7.87;;;;;;;;;;5071717;28;20943;-58
2021/12/04 06:59:57;;;;;;;10.10;8.10;;;;;;;;;;5071550;28;20479;-58
2021/12/04 07:02:23;;;;;;;8.90;8.10;;;;;;;;;;5071740;28;20474;-58
2021/12/04 07:04:49;;;;;;;10.77;8.40;;;;;;;;;;5071614;28;20461;-58
2021/12/04 07:07:17;;;;;;;9.80;8.23;;;;;;;;;;5071899;28;20442;-58
2021/12/04 07:09:43;;;;;;;8.93;8.03;;;;;;;;;;5071699;28;20497;-58
2021/12/04 07:12:10;;;;;;;9.13;8.23;;;;;;;;;;5071642;28;20872;-58
2021/12/04 07:14:36;;;;;;;9.73;8.80;;;;;;;;;;5071592;28;20445;-58
2021/12/04 07:17:03;;;;;;;9.80;8.90;;;;;;;;;;5071676;28;20812;-58
2021/12/04 07:19:30;;;;;;;11.57;9.90;;;;;;;;;;5071695;28;20462;-58
2021/12/04 07:21:56;;;;;;;10.63;9.57;;;;;;;;;;5071259;28;20998;-58
2021/12/04 07:24:23;;;;;;;9.83;8.93;;;;;;;;;;5071514;28;20441;-58
2021/12/04 07:26:49;;;;;;;10.30;9.30;;;;;;;;;;5071368;28;20238;-58
2021/12/04 07:29:15;;;;;;;10.23;9.17;;;;;;;;;;5071638;28;20491;-58
2021/12/04 07:31:41;;;;;;;10.83;9.77;;;;;;;;;;5071427;28;20445;-58
2021/12/04 07:34:07;;;;;;;9.97;9.07;;;;;;;;;;5071504;28;20195;-58
2021/12/04 07:36:33;;;;;;;10.37;9.47;;;;;;;;;;5071155;28;20495;-58
2021/12/04 07:39:00;;;;;;;10.53;9.33;;;;;;;;;;5071462;28;20499;-59
2021/12/04 07:41:28;;;;;;;10.03;8.90;;;;;;;;;;5071006;28;20466;-58
2021/12/04 07:43:54;;;;;;;10.03;9.03;;;;;;;;;;5073927;28;20440;-58
2021/12/04 07:46:20;;;;;;;8.67;7.87;;;;;;;;;;5075279;28;20433;-58
2021/12/04 07:48:46;;;;;;;9.37;8.40;;;;;;;;;;5075210;28;20440;-58
2021/12/04 07:51:12;;;;;;;10.23;8.47;;;;;;;;;;5075216;28;20520;-58
2021/12/04 07:53:38;;;;;;;9.73;8.13;;;;;;;;;;5074956;28;20422;-58
2021/12/04 07:56:06;;;;;;;10.00;8.50;;;;;;;;;;5074761;28;20919;-58
2021/12/04 07:58:34;;;;;;;9.03;8.10;;;;;;;;;;5074995;28;20438;-58
2021/12/04 08:01:00;;;;;;;9.00;8.20;;;;;;;;;;5074613;28;20520;-58
2021/12/04 08:03:26;;;;;;;9.30;8.10;;;;;;;;;;5074835;28;20470;-58
2021/12/04 08:05:52;;;;;;;8.23;7.43;;;;;;;;;;5074566;28;20624;-58
2021/12/04 08:08:18;;;;;;;9.47;8.20;;;;;;;;;;5074704;28;20776;-58
2021/12/04 08:10:44;;;;;;;10.70;8.10;;;;;;;;;;5074731;28;20448;-58
2021/12/04 08:13:10;;;;;;;9.17;8.27;;;;;;;;;;5074559;28;20418;-57
2021/12/04 08:15:38;;;;;;;9.17;8.27;;;;;;;;;;5074608;28;20452;-57
2021/12/04 08:18:04;;;;;;;8.07;7.27;;;;;;;;;;5074440;28;20299;-58
2021/12/04 08:20:30;;;;;;;8.67;7.87;;;;;;;;;;5074303;28;20782;-58
2021/12/04 08:22:56;;;;;;;9.83;8.83;;;;;;;;;;5056470;28;20558;-57
2021/12/04 08:25:23;;;;;;;9.50;8.50;;;;;;;;;;5074286;28;20434;-57
2021/12/04 08:27:49;;;;;;;10.00;8.83;;;;;;;;;;5074152;28;20951;-57
2021/12/04 08:30:16;;;;;;;10.30;8.57;;;;;;;;;;5074327;28;20422;-57
2021/12/04 08:32:44;;;;;;;10.87;9.07;;;;;;;;;;5074367;28;20995;-57
2021/12/04 08:35:11;;;;;;;9.73;8.73;;;;;;;;;;5074316;28;20536;-58
2021/12/04 08:37:37;;;;;;;9.77;8.87;;;;;;;;;;5074056;28;20519;-59
2021/12/04 08:40:04;;;;;;;9.97;8.87;;;;;;;;;;5074197;28;20460;-58
2021/12/04 08:42:30;;;;;;;9.50;8.50;;;;;;;;;;5074129;28;20556;-56
2021/12/04 08:44:56;;;;;;;10.30;8.33;;;;;;;;;;5073971;28;20532;-56
2021/12/04 08:47:22;;;;;;;8.80;8.00;;;;;;;;;;5074047;28;20205;-58
2021/12/04 08:49:49;;;;;;;9.50;8.50;;;;;;;;;;5073909;28;20430;-57
2021/12/04 08:52:18;;;;;;;9.50;8.50;;;;;;;;;;5074276;28;20204;-57
2021/12/04 08:54:44;;;;;;;10.10;9.10;;;;;;;;;;5073412;28;20484;-56
2021/12/04 08:57:10;;;;;;;10.03;9.03;;;;;;;;;;5073791;28;20440;-56
2021/12/04 08:59:36;;;;;;;10.07;8.37;;;;;;;;;;5073630;28;20504;-57
2021/12/04 09:02:04;;;;;;;9.97;8.97;;;;;;;;;;5073682;28;20469;-56
2021/12/04 09:04:31;;;;;;;10.80;9.57;;;;;;;;;;5073784;28;20907;-57
2021/12/04 09:06:59;;;;;;;9.87;8.67;;;;;;;;;;5073575;28;20434;-57
2021/12/04 09:09:27;;;;;;;10.07;9.10;;;;;;;;;;5073688;28;20444;-58
2021/12/04 09:11:55;;;;;;;11.37;9.50;;;;;;;;;;5073465;28;20480;-57
2021/12/04 09:14:23;;;;;;;10.40;9.30;;;;;;;;;;5073378;28;20472;-57
2021/12/04 09:16:51;;;;;;;10.90;9.80;;;;;;;;;;5073163;28;20946;-57
2021/12/04 09:19:17;;;;;;;11.80;9.87;;;;;;;;;;5073611;28;20461;-57
2021/12/04 09:21:43;;;;;;;10.10;9.10;;;;;;;;;;5073238;28;21032;-57
2021/12/04 09:24:16;;;;;;;10.73;9.73;;;;;;;;;;5073451;28;20212;-57
2021/12/04 09:34:43;;;;;;;11.37;10.17;;;;;;;;;;5073242;28;20483;-57
2021/12/04 10:01:56;;;;;;;12.17;10.93;;;;;;;;;;5072405;28;20540;-58
2021/12/04 10:04:47;;;;;;;12.50;10.70;;;;;;;;;;5054590;28;20474;-57
2021/12/04 10:13:17;;;;;;;11.80;10.57;;;;;;;;;;5040923;28;20932;-58
2021/12/04 10:23:58;;;;;;;12.13;10.93;;;;;;;;;;5072116;28;20460;-58
2021/12/04 10:34:43;;;;;;;10.10;9.17;;;;;;;;;;5071962;28;20425;-57
2021/12/04 10:37:10;;;;;;;11.23;10.13;;;;;;;;;;5071891;28;20440;-58
2021/12/04 10:39:36;;;;;;;11.80;10.57;;;;;;;;;;5071960;28;20442;-58
2021/12/04 10:42:07;;;;;;;12.60;10.43;;;;;;;;;;5071993;28;20499;-57
2021/12/04 10:44:38;;;;;;;11.10;9.90;;;;;;;;;;5072041;28;20468;-57
2021/12/04 10:47:07;;;;;;;11.30;10.20;;;;;;;;;;5071766;28;20446;-58
2021/12/04 10:52:47;;;;;;;11.10;9.33;;;;;;;;;;5054206;28;20434;-58
2021/12/04 11:03:20;;;;;;;11.10;9.90;;;;;;;;;;5068660;28;20576;-56
2021/12/04 11:06:18;;;;;;;9.80;8.80;;;;;;;;;;5071199;28;21130;-57
2021/12/04 11:25:17;;;;;;;10.80;9.80;;;;;;;;;;5075192;28;20473;-59
2021/12/04 11:28:00;;;;;;;10.10;9.10;;;;;;;;;;5075536;28;20449;-58
2021/12/04 11:36:17;;;;;;;10.20;9.20;;;;;;;;;;5075522;28;20892;-57
2021/12/04 11:41:23;;;;;;;9.57;8.57;;;;;;;;;;5075311;28;20935;-59
2021/12/04 11:46:25;;;;;;;8.00;7.30;;;;;;;;;;5075312;28;20450;-58
2021/12/04 11:48:52;;;;;;;9.13;7.50;;;;;;;;;;5075086;28;20817;-58
2021/12/04 11:51:20;;;;;;;7.57;6.60;;;;;;;;;;5075191;28;20456;-58
2021/12/04 11:53:46;;;;;;;7.00;6.30;;;;;;;;;;5075278;28;20488;-57
2021/12/04 11:56:19;;;;;;;6.97;6.27;;;;;;;;;;5074922;28;20450;-58
2021/12/04 11:58:47;;;;;;;6.50;5.80;;;;;;;;;;5073045;28;20943;-59
2021/12/04 12:01:24;;;;;;;6.53;5.93;;;;;;;;;;5074458;28;20492;-57
2021/12/04 12:03:52;;;;;;;6.43;5.83;;;;;;;;;;5074781;28;20437;-57
2021/12/04 12:06:27;;;;;;;6.13;5.47;;;;;;;;;;5074738;28;20464;-58
2021/12/04 12:09:00;;;;;;;5.97;5.47;;;;;;;;;;5074511;28;20672;-57
2021/12/04 12:11:28;;;;;;;5.83;5.33;;;;;;;;;;5074335;28;20434;-58
2021/12/04 12:13:57;;;;;;;6.20;5.60;;;;;;;;;;5074239;28;20460;-57
2021/12/04 12:16:24;;;;;;;5.50;5.00;;;;;;;;;;5074396;28;20430;-59
2021/12/04 12:18:54;;;;;;;5.60;5.10;;;;;;;;;;5074299;28;20437;-58
2021/12/04 12:21:29;;;;;;;5.77;5.27;;;;;;;;;;5074318;28;20441;-59
2021/12/04 12:27:07;;;;;;;5.63;4.60;;;;;;;;;;5074511;28;20464;-59
2021/12/04 12:32:37;;;;;;;4.50;4.10;;;;;;;;;;5074290;28;20793;-59
2021/12/04 12:37:49;;;;;;;4.10;3.70;;;;;;;;;;5074292;28;20434;-58
2021/12/04 12:40:16;;;;;;;4.00;3.70;;;;;;;;;;5074127;28;20944;-58
2021/12/04 12:42:43;;;;;;;4.30;3.90;;;;;;;;;;5073898;28;20500;-57
2021/12/04 12:45:16;;;;;;;3.60;3.30;;;;;;;;;;5073838;28;20536;-57
2021/12/04 12:47:50;;;;;;;4.20;3.80;;;;;;;;;;5073779;28;20782;-58
2021/12/04 12:50:26;;;;;;;4.20;3.80;;;;;;;;;;5074024;28;20430;-59
2021/12/04 12:53:00;;;;;;;3.93;3.63;;;;;;;;;;5073733;28;20448;-59
2021/12/04 12:55:32;;;;;;;4.20;3.80;;;;;;;;;;5073728;28;20495;-57
2021/12/04 12:57:58;;;;;;;4.13;3.67;;;;;;;;;;5073873;28;20480;-58
2021/12/04 13:14:08;;;;;;;4.53;4.13;;;;;;;;;;5073411;28;20532;-57
2021/12/04 13:16:34;;;;;;;4.50;4.00;;;;;;;;;;5073331;28;20422;-58
2021/12/04 13:19:05;;;;;;;4.80;4.40;;;;;;;;;;5073204;28;20442;-58
2021/12/04 13:21:33;;;;;;;4.73;4.30;;;;;;;;;;5073303;28;20430;-57
2021/12/04 13:24:00;;;;;;;5.10;4.70;;;;;;;;;;5073183;28;20523;-57
2021/12/04 13:26:27;;;;;;;5.73;4.90;;;;;;;;;;5073039;28;20525;-56
2021/12/04 13:28:53;;;;;;;6.03;5.50;;;;;;;;;;5072980;28;20430;-58
2021/12/04 13:31:19;;;;;;;6.43;5.03;;;;;;;;;;5072925;28;20947;-58
2021/12/04 13:33:46;;;;;;;5.97;5.37;;;;;;;;;;5073344;28;20430;-58
2021/12/04 13:36:13;;;;;;;5.57;5.03;;;;;;;;;;5072965;28;20457;-58
2021/12/04 13:38:39;;;;;;;6.03;5.43;;;;;;;;;;5072954;28;20445;-58
2021/12/04 13:41:07;;;;;;;8.23;6.73;;;;;;;;;;5071630;28;20442;-58
2021/12/04 13:43:33;;;;;;;6.43;5.77;;;;;;;;;;5072759;28;20951;-57
2021/12/04 13:46:00;;;;;;;6.40;5.80;;;;;;;;;;5072812;28;20437;-58
2021/12/04 13:48:27;;;;;;;8.00;7.20;;;;;;;;;;5072717;28;20557;-59
2021/12/04 13:50:55;;;;;;;6.70;6.10;;;;;;;;;;5072667;28;20460;-59
2021/12/04 13:53:25;;;;;;;7.13;6.53;;;;;;;;;;5072475;28;20430;-59
2021/12/04 13:55:53;;;;;;;7.03;6.37;;;;;;;;;;5072511;28;20430;-59
2021/12/04 13:58:20;;;;;;;5.70;5.10;;;;;;;;;;5072587;28;20434;-59
2021/12/04 14:00:46;;;;;;;6.27;5.23;;;;;;;;;;5072478;28;20505;-59
2021/12/04 14:03:12;;;;;;;7.00;5.60;;;;;;;;;;5071567;28;20535;-58
2021/12/04 14:05:39;;;;;;;5.50;5.00;;;;;;;;;;5072314;28;20544;-58
2021/12/04 14:08:06;;;;;;;5.43;4.93;;;;;;;;;;5072273;28;20461;-57
2021/12/04 14:10:33;;;;;;;5.63;5.07;;;;;;;;;;5072464;28;20438;-59
2021/12/04 14:13:00;;;;;;;4.90;4.50;;;;;;;;;;5072292;28;20430;-58
2021/12/04 14:15:27;;;;;;;5.53;5.03;;;;;;;;;;5072404;28;20438;-58
2021/12/04 14:17:58;;;;;;;5.60;5.10;;;;;;;;;;5072160;28;20452;-57
2021/12/04 14:20:24;;;;;;;6.10;5.50;;;;;;;;;;5072230;28;20432;-56
2021/12/04 14:22:52;;;;;;;5.73;5.03;;;;;;;;;;5071971;28;20481;-59
2021/12/04 14:25:18;;;;;;;5.17;4.67;;;;;;;;;;5072135;28;20433;-57
2021/12/04 14:27:45;;;;;;;5.07;4.50;;;;;;;;;;5072227;28;20448;-57
2021/12/04 14:30:12;;;;;;;4.80;4.40;;;;;;;;;;5071786;28;20429;-56
2021/12/04 14:32:42;;;;;;;4.13;3.83;;;;;;;;;;5071959;28;20438;-58
2021/12/04 14:35:10;;;;;;;4.67;4.20;;;;;;;;;;5071751;28;20460;-58
2021/12/04 14:37:38;;;;;;;5.03;4.60;;;;;;;;;;5071896;28;20446;-59
2021/12/04 14:40:05;;;;;;;4.53;4.13;;;;;;;;;;5071738;28;20449;-57
2021/12/04 14:42:32;;;;;;;4.30;3.90;;;;;;;;;;5071908;28;20481;-57
2021/12/04 14:45:00;;;;;;;4.93;4.47;;;;;;;;;;5071850;28;20547;-58
2021/12/04 14:47:29;;;;;;;4.77;4.37;;;;;;;;;;5071844;28;20448;-59
2021/12/04 14:50:00;;;;;;;4.37;4.07;;;;;;;;;;5071704;28;20438;-57
2021/12/04 14:52:27;;;;;;;4.90;4.27;;;;;;;;;;5071552;28;20471;-57
2021/12/04 14:54:53;;;;;;;4.50;4.10;;;;;;;;;;5071878;28;20482;-58
2021/12/04 14:57:21;;;;;;;4.40;4.00;;;;;;;;;;5071702;28;20533;-59
2021/12/04 14:59:47;;;;;;;4.47;4.07;;;;;;;;;;5071739;28;20462;-58
2021/12/04 15:02:16;;;;;;;4.43;4.03;;;;;;;;;;5071698;28;21006;-58
2021/12/04 15:04:42;;;;;;;4.40;4.00;;;;;;;;;;5071599;28;20450;-58
2021/12/04 15:07:18;;;;;;;5.50;5.00;;;;;;;;;;5071458;28;20442;-58
2021/12/04 15:09:44;;;;;;;6.90;4.33;;;;;;;;;;5071665;28;20980;-59
2021/12/04 15:12:10;;;;;;;4.60;4.20;;;;;;;;;;5071361;28;20943;-58
2021/12/04 15:14:36;;;;;;;5.17;4.67;;;;;;;;;;5071519;28;20425;-57
2021/12/04 15:17:07;;;;;;;5.33;4.83;;;;;;;;;;5071468;28;20953;-58
2021/12/04 15:19:45;;;;;;;5.30;4.80;;;;;;;;;;5071593;28;20437;-58
2021/12/04 15:22:14;;;;;;;5.10;4.60;;;;;;;;;;5071295;28;20974;-58
2021/12/04 15:24:43;;;;;;;4.90;4.50;;;;;;;;;;5071382;28;20863;-58
2021/12/04 15:27:11;;;;;;;5.23;4.40;;;;;;;;;;5071176;28;20453;-58
2021/12/04 15:29:37;;;;;;;5.30;4.80;;;;;;;;;;5071602;28;20448;-59
2021/12/04 15:32:07;;;;;;;5.57;4.10;;;;;;;;;;5071255;28;20791;-58
2021/12/04 15:34:34;;;;;;;4.73;4.33;;;;;;;;;;5071214;28;20488;-57
2021/12/04 15:37:03;;;;;;;4.87;4.47;;;;;;;;;;5071330;28;20446;-58
2021/12/04 15:39:33;;;;;;;4.90;4.43;;;;;;;;;;5071409;28;20430;-59
2021/12/04 15:44:45;;;;;;;5.33;4.77;;;;;;;;;;5071190;28;20485;-58
2021/12/04 15:55:08;;;;;;;4.63;4.23;;;;;;;;;;5071032;28;20416;-57
2021/12/04 15:57:35;;;;;;;4.53;4.13;;;;;;;;;;5071171;28;20787;-58
2021/12/04 16:00:03;;;;;;;5.90;4.20;;;;;;;;;;5070920;28;20469;-58
2021/12/04 16:02:34;;;;;;;3.97;3.67;;;;;;;;;;5071087;28;20512;-57
2021/12/04 16:05:08;;;;;;;4.33;3.93;;;;;;;;;;5073818;28;20532;-57
2021/12/04 16:07:35;;;;;;;4.20;3.90;;;;;;;;;;5074683;28;20536;-58
2021/12/04 16:10:08;;;;;;;4.73;4.33;;;;;;;;;;5074629;28;20528;-59
2021/12/04 16:12:37;;;;;;;4.70;4.30;;;;;;;;;;5074722;28;20469;-57
2021/12/04 16:15:04;;;;;;;5.03;4.60;;;;;;;;;;5074561;28;20491;-57
2021/12/04 16:17:30;;;;;;;5.00;4.40;;;;;;;;;;5074694;28;20472;-57
2021/12/04 16:20:11;;;;;;;4.53;4.13;;;;;;;;;;5074353;28;20438;-58
2021/12/04 16:22:39;;;;;;;4.40;4.00;;;;;;;;;;5074327;28;20364;-58
2021/12/04 16:25:09;;;;;;;4.90;4.40;;;;;;;;;;5074225;28;20495;-58
2021/12/04 16:35:23;;;;;;;4.50;4.10;;;;;;;;;;5074380;28;20430;-58
2021/12/04 16:37:50;;;;;;;5.07;4.33;;;;;;;;;;5074195;28;20434;-60
2021/12/04 16:40:20;;;;;;;5.10;4.40;;;;;;;;;;5074126;28;20524;-59
2021/12/04 16:42:51;;;;;;;4.57;4.13;;;;;;;;;;5074163;28;20573;-58
2021/12/04 16:45:19;;;;;;;4.27;3.87;;;;;;;;;;5074166;28;20532;-57
2021/12/04 16:47:49;;;;;;;4.87;4.00;;;;;;;;;;5056189;28;20492;-57
2021/12/04 16:50:19;;;;;;;4.33;3.93;;;;;;;;;;5074477;28;20432;-57
2021/12/04 16:58:12;;;;;;;3.93;3.63;;;;;;;;;;5073811;28;20520;-57
2021/12/04 17:00:38;;;;;;;4.60;4.20;;;;;;;;;;5073547;28;20998;-57
2021/12/04 17:03:05;;;;;;;5.00;4.47;;;;;;;;;;5073508;28;20481;-58
2021/12/04 17:05:33;;;;;;;4.60;4.20;;;;;;;;;;5073648;28;20457;-58
2021/12/04 17:07:59;;;;;;;8.03;4.40;;;;;;;;;;5073614;28;20444;-57
2021/12/04 17:10:26;;;;;;;4.00;3.57;;;;;;;;;;5073569;28;20465;-57
2021/12/04 17:12:52;;;;;;;4.30;3.90;;;;;;;;;;5073415;28;20915;-57
2021/12/04 17:15:20;;;;;;;4.57;3.80;;;;;;;;;;5073196;28;20915;-57
2021/12/04 17:17:47;;;;;;;3.93;3.53;;;;;;;;;;5055323;28;20947;-57
2021/12/04 17:20:14;;;;;;;4.37;3.97;;;;;;;;;;5073566;28;20442;-57
2021/12/04 17:22:40;;;;;;;4.70;4.20;;;;;;;;;;5073492;28;20512;-57
2021/12/04 17:25:07;;;;;;;4.07;3.70;;;;;;;;;;5073381;28;20430;-56
2021/12/04 17:27:33;;;;;;;4.60;4.20;;;;;;;;;;5073600;28;20438;-58
2021/12/04 17:29:59;;;;;;;4.90;4.50;;;;;;;;;;5073331;28;20437;-57
2021/12/04 17:32:27;;;;;;;5.10;4.53;;;;;;;;;;5073507;28;20473;-56
2021/12/04 17:34:55;;;;;;;4.90;4.50;;;;;;;;;;5073472;28;20208;-56
2021/12/04 17:37:23;;;;;;;5.13;4.63;;;;;;;;;;5073337;28;20449;-59
2021/12/04 17:39:52;;;;;;;5.17;4.77;;;;;;;;;;5073198;28;20434;-59
2021/12/04 17:42:18;;;;;;;6.27;5.43;;;;;;;;;;5073509;28;20477;-58
2021/12/04 17:44:44;;;;;;;5.60;5.10;;;;;;;;;;5073204;28;20838;-58
2021/12/04 17:47:10;;;;;;;5.53;4.97;;;;;;;;;;5072915;28;20689;-57
2021/12/04 17:49:38;;;;;;;5.30;4.57;;;;;;;;;;5073177;28;20429;-58
2021/12/04 17:52:05;;;;;;;5.20;4.70;;;;;;;;;;5055141;28;20433;-58
2021/12/04 17:54:31;;;;;;;6.10;5.50;;;;;;;;;;5073089;28;20433;-57
2021/12/04 17:56:57;;;;;;;6.17;5.13;;;;;;;;;;5072583;28;20513;-56
2021/12/04 17:59:26;;;;;;;5.90;5.40;;;;;;;;;;5072720;28;20422;-55
2021/12/04 18:01:54;;;;;;;5.40;5.00;;;;;;;;;;5072656;28;20904;-57